< Cyclone 199910 1999 Season Cyclone 199912 >
Cyclone 199911 (ELAINE)
General InformationDetailed Track InformationTrack Information on Google MapsList of All Images || ResourceGoogle EarthGE AnimationAtom FeedGeoJSON
Detalied Best Track Wind (Time Zone = UTC)
Year Month Day Hour Lat. Long. Wind (kt) Gust (kt) Direc. of Major Storm Axis Radius of Major Storm Axis (nm) Radius of Minor Storm Axis (nm) Direc. of Major Gale Axis Radius of Major Gale Axis (nm) Radius of Minor Gale Axis (nm) Image
1999 3 15 01 -13.0 117.5 23 -1 symmetric - - symmetric - - Image
1999 3 15 04 -13.1 117.2 23 -1 symmetric - - symmetric - - Image
1999 3 15 07 -13.1 117.0 27 -1 symmetric - - symmetric - - Image
1999 3 15 10 -13.2 116.7 27 -1 symmetric - - symmetric - - Image
1999 3 15 16 -13.5 116.2 27 -1 symmetric - - symmetric - - Image
1999 3 16 01 -13.9 115.8 35 -1 symmetric - - symmetric - - Image
1999 3 16 04 -14.0 115.6 35 -1 symmetric - - symmetric - - Image
1999 3 16 07 -14.1 115.4 41 -1 symmetric - - symmetric - - Image
1999 3 16 10 -14.3 115.1 41 -1 symmetric - - symmetric - - Image
1999 3 16 13 -14.6 114.7 49 -1 symmetric - - symmetric - - Image
1999 3 16 16 -14.8 114.2 54 -1 symmetric - - symmetric - - Image
1999 3 16 19 -15.0 113.7 54 -1 symmetric - - symmetric - - Image
1999 3 16 22 -15.3 113.2 60 -1 symmetric - - symmetric - - Image
1999 3 17 01 -15.6 112.7 64 -1 symmetric - - symmetric - - Image
1999 3 17 04 -15.9 112.4 70 -1 symmetric - - symmetric - - Image
1999 3 17 07 -16.3 112.0 70 -1 symmetric - - symmetric - - Image
1999 3 17 10 -16.7 111.7 70 -1 symmetric - - symmetric - - Image
1999 3 17 13 -17.1 111.5 76 -1 symmetric - - symmetric - - Image
1999 3 17 16 -17.5 111.3 76 -1 symmetric - - symmetric - - Image
1999 3 17 19 -17.9 111.1 80 -1 symmetric - - symmetric - - Image
1999 3 17 22 -18.4 110.9 84 -1 symmetric - - symmetric - - Image
1999 3 18 01 -18.8 110.8 89 -1 symmetric - - symmetric - - Image
1999 3 18 04 -19.2 110.8 89 -1 symmetric - - symmetric - - Image
1999 3 18 07 -19.7 110.8 89 -1 symmetric - - symmetric - - Image
1999 3 18 10 -20.2 110.9 89 -1 symmetric - - symmetric - - Image
1999 3 18 13 -20.8 111.0 84 -1 symmetric - - symmetric - - Image
1999 3 18 16 -21.4 111.0 80 -1 symmetric - - symmetric - - Image
1999 3 18 19 -22.0 111.0 80 -1 symmetric - - symmetric - - Image
1999 3 18 22 -22.6 111.1 70 -1 symmetric - - symmetric - - Image
1999 3 19 01 -23.2 111.1 64 -1 symmetric - - symmetric - - Image
1999 3 19 04 -23.6 111.2 60 -1 symmetric - - symmetric - - Image
1999 3 19 07 -24.2 111.3 60 -1 symmetric - - symmetric - - Image
1999 3 19 10 -24.7 111.5 54 -1 symmetric - - symmetric - - Image
1999 3 19 13 -25.3 111.8 54 -1 symmetric - - symmetric - - Image
1999 3 19 16 -26.0 112.2 49 -1 symmetric - - symmetric - - Image
1999 3 19 19 -26.7 112.8 41 -1 symmetric - - symmetric - - Image
1999 3 19 22 -27.4 113.5 35 -1 symmetric - - symmetric - - Image
1999 3 20 01 -28.1 114.2 31 -1 symmetric - - symmetric - - Image
1999 3 20 04 -28.6 115.0 31 -1 symmetric - - symmetric - - Image
1999 3 20 07 -28.8 115.9 31 -1 symmetric - - symmetric - - Image
1999 3 20 10 -28.8 117.0 29 -1 symmetric - - symmetric - - Image
< Cyclone 199910 1999 Season Cyclone 199912 >

Help